Time;durP1;ratioP1;P1;durP2;ratioP2;P2;SDS_P1;SDS_P2;PMS_P1;PMS_P2;Temp;Humidity;BMP_temperature;BMP_pressure;BME280_temperature;BME280_humidity;BME280_pressure;Samples;Min_cycle;Max_cycle;Signal;HPM_P1;HPM_P2
2022/05/20 00:01:18;;;;;;;13.55;5.65;;;;;;;10.23;77.64;101072.38;1750098;82;21255;-41
2022/05/20 00:03:45;;;;;;;14.20;5.67;;;;;;;10.22;76.32;101069.34;1749990;82;20927;-41
2022/05/20 00:06:11;;;;;;;12.93;5.35;;;;;;;10.25;75.49;101066.76;1749767;80;20940;-41
2022/05/20 00:08:39;;;;;;;6.12;4.92;;;;;;;10.27;73.55;101071.48;1749836;82;20869;-42
2022/05/20 00:11:08;;;;;;;16.32;6.67;;;;;;;10.31;72.64;101068.00;1750122;82;21276;-41
2022/05/20 00:13:35;;;;;;;9.43;5.37;;;;;;;10.28;71.95;101070.61;1749780;82;21459;-41
2022/05/20 00:16:04;;;;;;;11.43;4.95;;;;;;;10.31;71.99;101071.01;1749753;81;21475;-41
2022/05/20 00:18:31;;;;;;;8.28;5.05;;;;;;;10.31;72.22;101073.17;1722544;82;20904;-41
2022/05/20 00:20:59;;;;;;;13.98;5.78;;;;;;;10.30;71.62;101075.77;1750166;80;21502;-41
2022/05/20 00:23:25;;;;;;;19.67;5.58;;;;;;;10.28;70.94;101077.09;1749977;82;21042;-41
2022/05/20 00:25:54;;;;;;;15.43;5.70;;;;;;;10.24;70.69;101083.58;1749962;82;20976;-42
2022/05/20 00:28:27;;;;;;;18.75;6.00;;;;;;;10.21;69.14;101084.44;1742395;81;21435;-41
2022/05/20 00:31:00;;;;;;;13.95;5.70;;;;;;;10.21;67.69;101081.44;1735178;82;20984;-41
2022/05/20 00:33:27;;;;;;;12.78;5.90;;;;;;;10.20;66.70;101082.73;1736055;82;20957;-41
2022/05/20 00:35:54;;;;;;;13.80;6.10;;;;;;;10.18;63.98;101072.83;1736002;82;20858;-42
2022/05/20 00:38:21;;;;;;;17.70;6.22;;;;;;;10.17;64.30;101077.16;1715219;82;21242;-41
2022/05/20 00:40:51;;;;;;;15.50;6.15;;;;;;;10.12;64.08;101076.34;1735741;81;20877;-41
2022/05/20 00:43:35;;;;;;;11.90;6.08;;;;;;;10.11;62.46;101080.21;1736020;82;20975;-41
2022/05/20 00:46:06;;;;;;;18.62;7.08;;;;;;;10.11;62.10;101081.51;1735791;81;21088;-41
2022/05/20 00:48:33;;;;;;;21.90;6.97;;;;;;;10.06;61.53;101071.18;1735947;82;20940;-41
2022/05/20 00:51:13;;;;;;;14.98;6.50;;;;;;;10.02;61.38;101078.13;1736164;82;21484;-41
2022/05/20 00:53:47;;;;;;;15.43;7.17;;;;;;;9.93;62.20;101080.74;1735771;82;21562;-41
2022/05/20 00:56:18;;;;;;;14.93;6.92;;;;;;;9.88;60.95;101078.63;1735954;82;20976;-41
2022/05/20 00:58:45;;;;;;;14.63;6.70;;;;;;;9.88;60.30;101078.63;1735958;82;21012;-41
2022/05/20 01:01:11;;;;;;;16.32;6.83;;;;;;;9.82;60.83;101079.50;1736012;82;20937;-41
2022/05/20 01:03:38;;;;;;;18.37;6.92;;;;;;;9.75;60.39;101081.70;1735892;82;21150;-41
2022/05/20 01:06:06;;;;;;;13.50;7.42;;;;;;;9.70;59.60;101077.84;1735825;82;21012;-41
2022/05/20 01:08:33;;;;;;;17.42;7.70;;;;;;;9.68;60.33;101083.45;1715199;82;20961;-41
2022/05/20 01:11:00;;;;;;;19.25;7.33;;;;;;;9.65;59.08;101090.38;1736025;82;20941;-41
2022/05/20 01:13:29;;;;;;;13.18;7.28;;;;;;;9.63;59.68;101084.79;1736043;82;20933;-41
2022/05/20 01:15:55;;;;;;;19.60;7.05;;;;;;;9.59;59.96;101081.77;1735830;81;21165;-41
2022/05/20 01:18:23;;;;;;;17.00;7.50;;;;;;;9.53;60.00;101075.34;1735894;81;21011;-41
2022/05/20 01:20:55;;;;;;;22.62;6.97;;;;;;;9.44;59.65;101072.35;1714584;82;20961;-42
2022/05/20 01:23:24;;;;;;;14.15;6.70;;;;;;;9.35;59.81;101072.39;1735805;82;20985;-41
2022/05/20 01:25:53;;;;;;;15.90;6.53;;;;;;;9.28;60.47;101075.42;1735908;82;21058;-41
2022/05/20 01:28:23;;;;;;;12.73;7.15;;;;;;;9.19;61.32;101077.60;1741333;81;21824;-41
2022/05/20 01:30:58;;;;;;;14.43;7.00;;;;;;;9.09;61.70;101077.21;1749789;82;20964;-40
2022/05/20 01:33:38;;;;;;;14.13;6.67;;;;;;;9.01;60.95;101084.97;1749849;81;20928;-41
2022/05/20 01:36:09;;;;;;;13.58;7.00;;;;;;;8.98;60.72;101086.27;1749759;81;21521;-41
2022/05/20 01:38:36;;;;;;;16.40;6.22;;;;;;;8.95;60.58;101084.11;1749742;81;20999;-41
2022/05/20 01:41:12;;;;;;;19.98;6.80;;;;;;;8.87;60.62;101081.12;1749990;81;21236;-41
2022/05/20 01:44:03;;;;;;;14.47;6.72;;;;;;;8.77;61.29;101080.27;1749748;82;21573;-41
2022/05/20 01:47:03;;;;;;;16.67;7.05;;;;;;;8.72;61.72;101089.73;1749643;81;20943;-41
2022/05/20 01:49:56;;;;;;;18.65;6.97;;;;;;;8.63;62.24;101094.47;1749793;82;20956;-41
2022/05/20 01:52:52;;;;;;;12.30;6.65;;;;;;;8.56;62.54;101093.17;1749920;82;21482;-42
2022/05/20 01:55:36;;;;;;;16.20;6.55;;;;;;;8.42;62.53;101093.14;1750154;81;22105;-41
2022/05/20 01:58:15;;;;;;;18.67;7.12;;;;;;;8.31;63.05;101099.57;1749786;82;20928;-41
2022/05/20 02:00:42;;;;;;;11.28;6.37;;;;;;;8.19;63.42;101102.99;1750059;81;21597;-41
2022/05/20 02:03:15;;;;;;;16.62;6.60;;;;;;;8.10;64.92;101102.98;1714934;82;20928;-41
2022/05/20 02:05:55;;;;;;;18.30;6.25;;;;;;;7.99;66.23;101100.38;1749983;82;20944;-41
2022/05/20 02:08:42;;;;;;;13.30;6.90;;;;;;;7.90;67.03;101107.23;1750077;82;21096;-41
2022/05/20 02:11:53;;;;;;;15.38;6.60;;;;;;;7.82;68.19;101110.64;1749796;82;21008;-41
2022/05/20 02:14:31;;;;;;;15.32;6.35;;;;;;;7.75;69.02;101118.36;1749936;82;20894;-41
2022/05/20 02:17:19;;;;;;;14.68;6.65;;;;;;;7.84;70.97;101121.41;1749776;81;20984;-42
2022/05/20 02:19:58;;;;;;;19.25;7.03;;;;;;;7.92;72.00;101125.27;1748981;82;20901;-41
2022/05/20 02:22:28;;;;;;;15.75;6.67;;;;;;;7.94;71.79;101108.09;1749801;82;21757;-42
2022/05/20 02:24:55;;;;;;;18.23;6.85;;;;;;;8.01;70.57;101105.98;1749871;81;20885;-42
2022/05/20 02:27:25;;;;;;;19.35;7.08;;;;;;;8.08;69.59;101107.28;1749816;82;20968;-42
2022/05/20 02:30:14;;;;;;;16.05;6.33;;;;;;;8.12;68.41;101106.02;1737300;81;20960;-42
2022/05/20 02:33:00;;;;;;;14.15;7.25;;;;;;;8.18;68.25;101096.11;1735595;82;20947;-41
2022/05/20 02:35:27;;;;;;;20.75;7.55;;;;;;;8.26;67.54;101100.88;1717920;82;21009;-41
2022/05/20 02:37:54;;;;;;;20.48;7.25;;;;;;;8.32;67.32;101104.75;1735610;81;21507;-42
2022/05/20 02:40:21;;;;;;;21.15;7.42;;;;;;;8.38;66.76;101105.61;1735850;82;20893;-42
2022/05/20 02:42:49;;;;;;;14.68;7.12;;;;;;;8.42;66.29;101099.17;1735896;82;20934;-42
2022/05/20 02:45:16;;;;;;;14.03;7.58;;;;;;;8.48;66.02;101098.33;1735914;81;20956;-42
2022/05/20 02:47:43;;;;;;;27.52;7.95;;;;;;;8.52;65.92;101098.78;1735778;82;21265;-41
2022/05/20 02:50:11;;;;;;;20.40;8.00;;;;;;;8.61;65.59;101092.32;1735901;82;21473;-41
2022/05/20 02:52:37;;;;;;;18.07;7.85;;;;;;;8.69;65.25;101094.91;1735872;82;20913;-42
2022/05/20 02:55:06;;;;;;;16.85;7.97;;;;;;;8.77;64.74;101093.62;1736076;82;20973;-42
2022/05/20 02:57:33;;;;;;;16.25;9.10;;;;;;;8.86;64.42;101101.34;1735929;82;21494;-42
2022/05/20 03:05:30;;;;;;;25.83;9.70;;;;;;;9.11;63.90;101105.63;1736027;81;21221;-41
2022/05/20 03:07:57;;;;;;;24.82;8.80;;;;;;;9.16;64.00;101114.22;1735853;82;20926;-42
2022/05/20 03:10:25;;;;;;;21.68;9.08;;;;;;;9.21;64.36;101115.06;1735835;82;20889;-41
2022/05/20 03:13:00;;;;;;;16.75;8.93;;;;;;;9.30;64.83;101121.49;1735735;82;21926;-41
2022/05/20 03:15:27;;;;;;;17.30;7.20;;;;;;;9.38;65.45;101118.89;1739479;81;20964;-42
2022/05/20 03:17:54;;;;;;;18.80;9.25;;;;;;;9.52;64.97;101127.05;1735719;81;20953;-42
2022/05/20 03:20:21;;;;;;;16.02;9.50;;;;;;;9.60;65.03;101128.75;1735876;82;21005;-42
2022/05/20 03:22:49;;;;;;;16.70;9.23;;;;;;;9.71;64.15;101131.27;1735836;82;20921;-42
2022/05/20 03:25:15;;;;;;;23.38;9.60;;;;;;;9.90;63.26;101129.90;1735808;82;21258;-42
2022/05/20 03:27:43;;;;;;;25.65;10.20;;;;;;;10.01;63.25;101118.20;1735643;81;20976;-42
2022/05/20 03:30:11;;;;;;;24.45;10.20;;;;;;;10.10;61.82;101116.84;1748106;81;21525;-42
2022/05/20 03:32:38;;;;;;;20.40;9.28;;;;;;;10.23;62.29;101116.38;1749877;82;20916;-42
2022/05/20 03:35:06;;;;;;;22.55;8.93;;;;;;;10.33;61.77;101114.55;1749876;82;20884;-42
2022/05/20 03:37:32;;;;;;;24.80;8.75;;;;;;;10.45;61.43;101112.34;1749784;82;21187;-42
2022/05/20 03:40:00;;;;;;;22.77;8.63;;;;;;;10.57;60.84;101117.45;1749768;82;21569;-42
2022/05/20 03:44:16;;;;;;;19.92;8.30;;;;;;;10.81;59.11;101124.59;1798416;79;22595;-41
2022/05/20 03:46:46;;;;;;;15.85;8.28;;;;;;;10.88;59.26;101124.11;1719925;82;21034;-41
2022/05/20 03:49:14;;;;;;;17.60;8.15;;;;;;;10.91;58.75;101116.30;1695560;84;21100;-41
2022/05/20 03:51:44;;;;;;;28.00;8.45;;;;;;;10.98;56.98;101105.00;1695533;83;21022;-41
2022/05/20 03:54:11;;;;;;;17.25;8.35;;;;;;;11.06;57.04;101098.00;1695705;84;20887;-42
2022/05/20 03:56:40;;;;;;;20.12;7.90;;;;;;;11.16;56.73;101094.03;1695564;84;20912;-42
2022/05/20 03:59:08;;;;;;;18.32;8.20;;;;;;;11.31;56.83;101096.89;1695560;84;20942;-42
2022/05/20 04:04:23;;;;;;;16.42;7.55;;;;;;;11.70;56.00;101114.13;1695590;84;20935;-41
2022/05/20 04:06:49;;;;;;;20.30;8.73;;;;;;;11.90;56.06;101123.39;1695576;84;21085;-41
2022/05/20 04:09:16;;;;;;;17.35;7.90;;;;;;;12.04;55.10;101128.01;1695603;84;20946;-41
2022/05/20 04:11:43;;;;;;;15.50;8.55;;;;;;;12.18;55.72;101124.34;1695717;84;21525;-41
2022/05/20 04:14:10;;;;;;;14.30;7.72;;;;;;;12.28;55.29;101124.64;1695600;84;21141;-41
2022/05/20 04:16:37;;;;;;;14.93;8.20;;;;;;;12.36;55.43;101122.78;1695415;84;21449;-41
2022/05/20 04:19:04;;;;;;;19.75;7.97;;;;;;;12.42;55.29;101115.77;1695466;84;21018;-41
2022/05/20 04:21:31;;;;;;;15.40;7.75;;;;;;;12.48;55.95;101111.34;1695898;84;21462;-41
2022/05/20 04:23:57;;;;;;;20.55;8.30;;;;;;;12.58;56.00;101109.45;1695454;84;21050;-41
2022/05/20 04:26:24;;;;;;;23.20;8.35;;;;;;;12.65;56.16;101117.56;1695417;84;21910;-41
2022/05/20 04:28:51;;;;;;;24.57;8.18;;;;;;;12.73;56.35;101121.33;1695532;84;20971;-41
2022/05/20 04:31:17;;;;;;;19.48;8.05;;;;;;;12.83;56.73;101127.23;1695603;84;20907;-41
2022/05/20 04:33:44;;;;;;;17.05;8.60;;;;;;;12.96;57.40;101132.20;1695416;84;20955;-41
2022/05/20 04:36:10;;;;;;;15.25;7.92;;;;;;;13.08;57.76;101133.30;1695518;84;21536;-41
2022/05/20 04:38:37;;;;;;;16.60;7.97;;;;;;;13.27;58.40;101134.27;1695601;84;21190;-41
2022/05/20 04:49:21;;;;;;;14.78;7.62;;;;;;;14.56;57.53;101102.88;1680905;85;20935;-43
2022/05/20 04:51:47;;;;;;;18.60;6.50;;;;;;;14.98;56.22;101107.05;1680675;85;21209;-43
2022/05/20 04:57:00;;;;;;;14.33;6.20;;;;;;;15.83;54.24;101123.41;1715182;82;21027;-42
2022/05/20 04:59:26;;;;;;;13.32;5.80;;;;;;;16.13;54.12;101109.03;1714785;82;20941;-42
2022/05/20 05:01:54;;;;;;;14.47;6.55;;;;;;;16.38;52.56;101113.88;1680226;85;20928;-42
2022/05/20 05:04:21;;;;;;;14.80;6.08;;;;;;;16.50;52.12;101111.75;1680237;85;21146;-42
2022/05/20 05:06:48;;;;;;;21.00;5.78;;;;;;;16.60;51.58;101106.64;1714636;82;20988;-42
2022/05/20 05:09:15;;;;;;;13.60;5.75;;;;;;;16.65;50.27;101107.78;1714657;83;20960;-42
2022/05/20 05:11:42;;;;;;;8.63;5.35;;;;;;;16.79;50.78;101103.39;1714656;83;20893;-42
2022/05/20 05:14:10;;;;;;;12.75;6.05;;;;;;;16.98;49.29;101094.50;1714760;83;20975;-42
2022/05/20 05:16:37;;;;;;;17.57;6.28;;;;;;;17.19;49.07;101098.11;1679980;85;21049;-43
2022/05/20 05:19:04;;;;;;;13.30;5.25;;;;;;;17.38;48.97;101103.98;1714853;83;21446;-42
2022/05/20 05:21:33;;;;;;;14.80;5.12;;;;;;;17.65;48.66;101105.17;1714631;82;21506;-42
2022/05/20 05:24:00;;;;;;;7.72;4.50;;;;;;;17.99;48.23;101094.70;1680169;85;20980;-42
2022/05/20 05:26:30;;;;;;;10.10;4.90;;;;;;;18.35;46.37;101097.23;1714741;83;21007;-43
2022/05/20 05:28:57;;;;;;;11.63;4.90;;;;;;;18.43;45.95;101102.17;1713773;82;21020;-42
2022/05/20 05:31:26;;;;;;;10.10;4.20;;;;;;;18.35;45.16;101103.79;1680077;85;20929;-43
2022/05/20 05:33:53;;;;;;;10.00;4.87;;;;;;;18.30;46.97;101106.59;1680087;85;20892;-43
2022/05/20 05:36:20;;;;;;;9.18;4.83;;;;;;;18.29;46.72;101111.91;1714644;83;21143;-43
2022/05/20 05:38:47;;;;;;;16.62;4.97;;;;;;;18.27;47.05;101107.19;1714776;82;20960;-42
2022/05/20 05:41:13;;;;;;;12.40;4.35;;;;;;;18.16;48.17;101107.62;1714791;82;21052;-42
2022/05/20 05:43:40;;;;;;;10.48;4.62;;;;;;;18.07;48.64;101108.83;1679990;85;21018;-43
2022/05/20 05:46:07;;;;;;;22.98;4.62;;;;;;;18.06;49.16;101107.13;1714708;83;20988;-42
2022/05/20 05:48:34;;;;;;;16.85;4.05;;;;;;;18.17;49.83;101107.54;1680160;85;21034;-42
2022/05/20 05:51:02;;;;;;;26.45;4.50;;;;;;;18.47;49.91;101112.92;1680395;85;20977;-43
2022/05/20 05:53:29;;;;;;;7.37;3.55;;;;;;;18.64;48.87;101117.45;1680033;85;21365;-42
2022/05/20 05:56:00;;;;;;;8.38;4.12;;;;;;;18.73;49.02;101115.77;1714624;83;21011;-43
2022/05/20 05:58:28;;;;;;;11.00;3.75;;;;;;;18.71;49.08;101124.61;1680027;85;20936;-41
2022/05/20 06:00:55;;;;;;;7.80;3.80;;;;;;;18.56;49.29;101128.25;1714569;83;20940;-41
2022/05/20 06:03:22;;;;;;;16.90;4.00;;;;;;;18.40;48.37;101123.27;1679958;85;20857;-42
2022/05/20 06:05:50;;;;;;;14.53;4.20;;;;;;;18.10;49.56;101124.42;1714649;83;21105;-41
2022/05/20 06:08:16;;;;;;;8.18;3.10;;;;;;;18.13;49.72;101133.94;1680005;85;21007;-42
2022/05/20 06:10:43;;;;;;;9.30;3.83;;;;;;;18.12;49.98;101138.78;1714628;83;20905;-41
2022/05/20 06:13:10;;;;;;;13.43;3.90;;;;;;;18.24;50.27;101135.67;1714721;82;20901;-42
2022/05/20 06:15:37;;;;;;;34.70;4.22;;;;;;;18.30;50.42;101131.48;1680258;85;21495;-42
2022/05/20 06:18:05;;;;;;;14.23;3.58;;;;;;;18.35;50.42;101140.48;1714631;83;21040;-41
2022/05/20 06:20:33;;;;;;;21.97;4.05;;;;;;;18.29;48.88;101148.59;1679912;85;21399;-41
2022/05/20 06:23:01;;;;;;;15.70;4.12;;;;;;;18.11;49.18;101158.04;1680120;84;20991;-42
2022/05/20 06:25:29;;;;;;;17.10;3.52;;;;;;;17.91;50.26;101151.77;1680154;85;20924;-41
2022/05/20 06:28:12;;;;;;;12.43;4.00;;;;;;;17.87;52.05;101153.64;1714724;83;21557;-41
2022/05/20 06:30:40;;;;;;;8.98;3.90;;;;;;;17.86;51.11;101151.09;1714749;83;21184;-42
2022/05/20 06:33:06;;;;;;;10.43;4.30;;;;;;;17.83;51.51;101162.52;1659361;85;21062;-41
2022/05/20 06:41:06;;;;;;;10.30;4.40;;;;;;;17.41;50.51;101162.75;1680077;85;20983;-42
2022/05/20 06:43:33;;;;;;;8.38;4.22;;;;;;;17.25;51.95;101162.44;1718882;83;21149;-42
2022/05/20 06:46:02;;;;;;;15.65;4.95;;;;;;;17.20;52.20;101156.05;1727280;82;21471;-41
2022/05/20 06:48:45;;;;;;;14.15;4.85;;;;;;;17.17;52.60;101157.47;1727657;83;21465;-41
2022/05/20 06:51:23;;;;;;;7.92;4.47;;;;;;;17.30;51.87;101151.35;1692812;84;20912;-41
2022/05/20 06:53:54;;;;;;;14.53;4.78;;;;;;;17.30;52.19;101142.20;1692590;84;20983;-42
2022/05/20 06:56:22;;;;;;;8.65;4.90;;;;;;;17.45;52.26;101147.33;1692669;84;21290;-42
2022/05/20 06:58:50;;;;;;;16.05;4.78;;;;;;;17.63;51.37;101149.72;1692542;84;20951;-42
2022/05/20 07:01:17;;;;;;;8.30;4.28;;;;;;;17.72;51.09;101152.92;1692495;84;20927;-42
2022/05/20 07:03:45;;;;;;;16.25;4.30;;;;;;;17.80;50.95;101149.08;1692593;84;20849;-42
2022/05/20 07:06:12;;;;;;;8.93;4.10;;;;;;;18.08;51.02;101143.28;1692696;84;20971;-42
2022/05/20 07:08:39;;;;;;;24.57;4.40;;;;;;;18.20;48.99;101153.73;1643871;84;22308;-42
2022/05/20 07:11:06;;;;;;;21.93;4.40;;;;;;;18.13;49.25;101158.83;1692686;84;20923;-41
2022/05/20 07:13:33;;;;;;;19.57;3.52;;;;;;;18.17;49.57;101164.34;1692498;84;20936;-42
2022/05/20 07:16:00;;;;;;;5.35;3.00;;;;;;;18.03;48.01;101163.57;1692719;84;21007;-41
2022/05/20 07:18:27;;;;;;;12.13;3.87;;;;;;;17.81;48.66;101168.28;1692737;84;20980;-42
2022/05/20 07:20:54;;;;;;;16.17;3.90;;;;;;;17.55;48.51;101177.95;1692658;84;21147;-42
2022/05/20 07:23:24;;;;;;;15.98;3.30;;;;;;;17.21;49.12;101177.85;1692412;84;21517;-41
2022/05/20 07:25:50;;;;;;;12.33;3.50;;;;;;;16.95;50.50;101162.10;1692610;84;20982;-42
2022/05/20 07:28:17;;;;;;;10.48;3.40;;;;;;;16.81;50.33;101173.02;1692622;84;21018;-42
2022/05/20 07:30:44;;;;;;;4.47;3.30;;;;;;;16.58;51.47;101161.16;1692684;84;20924;-42
2022/05/20 07:33:11;;;;;;;6.55;2.85;;;;;;;16.57;51.18;101158.14;1692745;84;21135;-42
2022/05/20 07:35:39;;;;;;;14.30;3.95;;;;;;;16.41;52.09;101157.79;1692498;84;20988;-42
2022/05/20 07:38:07;;;;;;;10.35;2.77;;;;;;;16.43;52.20;101159.46;1692729;84;20923;-41
2022/05/20 07:40:35;;;;;;;9.35;3.25;;;;;;;16.52;51.69;101153.93;1692675;84;20982;-43
2022/05/20 07:43:02;;;;;;;11.22;2.75;;;;;;;16.60;51.12;101151.08;1692777;84;20892;-42
2022/05/20 07:45:29;;;;;;;5.80;2.65;;;;;;;16.67;52.01;101147.78;1680023;84;21220;-42
2022/05/20 07:47:56;;;;;;;18.48;3.37;;;;;;;16.87;51.12;101160.21;1714694;83;21503;-42
2022/05/20 07:50:23;;;;;;;12.00;3.10;;;;;;;16.86;50.05;101160.25;1680082;85;21451;-42
2022/05/20 07:55:42;;;;;;;12.37;2.65;;;;;;;16.73;49.03;101172.87;1714611;82;20981;-43
2022/05/20 07:58:12;;;;;;;9.93;2.10;;;;;;;16.64;49.97;101165.75;1679956;85;21154;-43
2022/05/20 08:00:39;;;;;;;9.88;2.20;;;;;;;16.65;48.81;101162.23;1679916;85;20982;-42
2022/05/20 08:03:06;;;;;;;9.28;2.40;;;;;;;16.68;49.09;101155.19;1714585;83;21016;-42
2022/05/20 08:05:33;;;;;;;9.53;2.20;;;;;;;16.73;49.04;101150.66;1680051;85;21034;-42
2022/05/20 08:08:05;;;;;;;3.45;2.12;;;;;;;16.75;47.51;101137.95;1714494;82;20944;-42
2022/05/20 08:10:34;;;;;;;3.25;2.20;;;;;;;16.91;47.23;101146.56;1680045;85;21147;-42
2022/05/20 08:13:02;;;;;;;8.83;2.58;;;;;;;17.33;46.30;101132.92;1714438;83;20916;-42
2022/05/20 08:15:31;;;;;;;7.03;2.62;;;;;;;17.50;46.31;101138.01;1679977;85;20980;-42
2022/05/20 08:17:59;;;;;;;6.42;2.62;;;;;;;17.54;44.99;101144.84;1714757;83;20917;-42
2022/05/20 08:20:28;;;;;;;8.83;3.08;;;;;;;17.38;45.08;101138.84;1680098;85;21096;-42
2022/05/20 08:22:55;;;;;;;7.67;2.77;;;;;;;17.19;43.40;101145.66;1679964;85;21173;-42
2022/05/20 08:25:24;;;;;;;6.30;3.08;;;;;;;17.03;44.16;101160.57;1679857;85;20930;-43
2022/05/20 08:27:52;;;;;;;10.90;2.45;;;;;;;16.97;44.60;101155.53;1679854;85;20987;-42
2022/05/20 08:30:23;;;;;;;8.55;2.75;;;;;;;16.88;45.58;101154.08;1679991;85;20952;-42
2022/05/20 08:32:50;;;;;;;5.70;2.40;;;;;;;16.91;45.34;101157.89;1680229;85;20968;-42
2022/05/20 08:35:17;;;;;;;13.18;2.05;;;;;;;16.89;45.76;101151.86;1714640;83;21137;-43
2022/05/20 08:37:46;;;;;;;5.45;2.30;;;;;;;16.93;45.16;101157.38;1714730;82;21162;-42
2022/05/20 08:40:23;;;;;;;8.53;2.40;;;;;;;17.05;46.37;101152.22;1714765;83;21466;-41
2022/05/20 08:42:51;;;;;;;5.30;2.08;;;;;;;17.29;48.03;101155.32;1714204;82;20945;-43
2022/05/20 08:45:21;;;;;;;13.98;2.15;;;;;;;17.53;46.57;101154.91;1714843;82;20988;-43
2022/05/20 08:47:49;;;;;;;10.65;2.47;;;;;;;17.70;47.45;101154.75;1680118;85;21085;-43
2022/05/20 08:50:26;;;;;;;7.25;2.25;;;;;;;17.96;46.89;101147.20;1714693;83;20846;-43
2022/05/20 08:52:56;;;;;;;5.12;1.95;;;;;;;18.34;46.41;101150.12;1678857;85;20924;-43
2022/05/20 08:55:22;;;;;;;4.12;2.20;;;;;;;18.66;46.88;101151.87;1714711;83;21505;-43
2022/05/20 08:57:57;;;;;;;3.62;1.87;;;;;;;19.17;46.64;101150.22;1680204;85;20900;-43
2022/05/20 09:00:24;;;;;;;10.10;2.35;;;;;;;19.61;46.08;101148.31;1680041;85;22107;-43
2022/05/20 09:02:51;;;;;;;13.18;2.67;;;;;;;19.89;44.59;101143.92;1714709;83;20992;-43
2022/05/20 09:05:32;;;;;;;3.52;1.98;;;;;;;19.74;43.47;101137.62;1714687;83;21027;-43
2022/05/20 09:08:16;;;;;;;8.93;2.62;;;;;;;19.61;44.08;101128.62;1679967;85;21518;-44
2022/05/20 09:10:53;;;;;;;12.37;2.25;;;;;;;19.62;45.04;101128.53;1714756;83;20973;-43
2022/05/20 09:16:26;;;;;;;6.53;2.30;;;;;;;19.58;44.40;101117.78;1680157;85;21011;-43
2022/05/20 09:19:08;;;;;;;11.60;2.37;;;;;;;19.56;45.25;101115.69;1704486;83;21440;-43
2022/05/20 09:21:38;;;;;;;7.65;2.17;;;;;;;19.54;46.13;101125.41;1680091;85;20897;-42
2022/05/20 09:24:18;;;;;;;5.72;2.30;;;;;;;19.31;45.96;101127.30;1714616;83;20976;-43
2022/05/20 09:26:53;;;;;;;3.52;2.12;;;;;;;19.07;45.72;101126.59;1714764;82;21197;-43
2022/05/20 09:29:37;;;;;;;6.13;2.20;;;;;;;18.98;44.90;101134.43;1679432;85;21118;-43
2022/05/20 09:32:06;;;;;;;4.58;1.77;;;;;;;18.76;45.87;101130.51;1714731;83;21252;-43
2022/05/20 09:34:39;;;;;;;6.05;2.15;;;;;;;18.65;46.85;101129.64;1680149;85;21024;-43
2022/05/20 09:37:16;;;;;;;3.12;1.67;;;;;;;18.79;48.02;101127.31;1680052;85;20888;-43
2022/05/20 09:39:46;;;;;;;4.97;1.52;;;;;;;18.90;48.04;101120.30;1676963;85;21176;-43
2022/05/20 09:42:17;;;;;;;5.10;2.10;;;;;;;18.94;48.47;101113.12;1714624;83;20975;-42
2022/05/20 09:44:51;;;;;;;8.20;2.27;;;;;;;19.28;49.20;101109.52;1682989;83;20908;-43
2022/05/20 09:47:50;;;;;;;13.65;1.80;;;;;;;19.51;48.16;101104.55;1687321;85;21233;-42
2022/05/20 09:50:27;;;;;;;3.80;1.85;;;;;;;19.67;47.05;101103.38;1722487;83;20995;-43
2022/05/20 09:53:18;;;;;;;7.40;2.12;;;;;;;19.71;48.00;101098.84;1722318;82;21542;-43
2022/05/20 09:55:46;;;;;;;4.53;1.72;;;;;;;19.93;47.51;101091.66;1722391;83;20862;-43
2022/05/20 09:58:28;;;;;;;8.23;1.98;;;;;;;20.14;46.58;101081.52;1687616;84;21022;-43
2022/05/20 10:01:05;;;;;;;5.28;1.80;;;;;;;20.20;46.84;101083.36;1722356;83;20948;-43
2022/05/20 10:03:47;;;;;;;6.33;1.90;;;;;;;20.39;46.14;101078.06;1722344;83;20924;-43
2022/05/20 10:06:31;;;;;;;3.85;1.57;;;;;;;20.33;46.08;101078.34;1722524;83;21248;-43
2022/05/20 10:09:22;;;;;;;8.30;1.92;;;;;;;20.12;45.60;101076.33;1721964;82;20979;-43
2022/05/20 10:12:02;;;;;;;17.70;2.42;;;;;;;19.88;46.52;101079.18;1722065;83;20988;-43
2022/05/20 10:14:57;;;;;;;13.43;2.10;;;;;;;19.96;47.53;101069.66;1722378;83;21679;-43
2022/05/20 10:17:33;;;;;;;21.33;2.55;;;;;;;19.99;47.20;101071.30;1687602;83;20881;-43
2022/05/20 10:20:47;;;;;;;12.53;2.35;;;;;;;20.01;46.38;101063.71;1704138;83;21170;-44
2022/05/20 10:23:22;;;;;;;14.80;2.67;;;;;;;19.66;48.02;101064.92;1722208;83;20947;-42
2022/05/20 10:26:10;;;;;;;5.33;2.30;;;;;;;19.60;48.94;101064.73;1687471;85;21003;-43
2022/05/20 10:34:35;;;;;;;13.75;2.70;;;;;;;19.35;50.21;101062.41;1687406;84;21880;-43
2022/05/20 10:37:31;;;;;;;7.58;1.90;;;;;;;19.22;49.36;101053.77;1687367;85;20979;-43
2022/05/20 10:40:10;;;;;;;3.72;2.08;;;;;;;19.02;49.52;101052.05;1686710;85;20939;-43
2022/05/20 10:42:55;;;;;;;11.73;2.12;;;;;;;18.82;49.97;101054.22;1722254;82;20957;-43
2022/05/20 10:48:51;;;;;;;7.87;1.70;;;;;;;18.78;50.40;101047.37;1649016;82;21991;-43
2022/05/20 10:51:42;;;;;;;5.83;1.90;;;;;;;18.78;50.38;101043.00;1678900;85;20924;-44
2022/05/20 10:54:38;;;;;;;7.33;1.85;;;;;;;18.65;52.21;101048.38;1714619;83;21517;-43
2022/05/20 10:57:29;;;;;;;7.03;2.00;;;;;;;18.70;50.92;101052.12;1680314;85;20940;-43
2022/05/20 11:00:10;;;;;;;6.10;2.35;;;;;;;18.76;51.34;101051.40;1714718;83;20928;-44
2022/05/20 11:03:02;;;;;;;8.00;1.70;;;;;;;18.89;50.93;101043.84;1714762;82;21152;-43
2022/05/20 11:05:52;;;;;;;8.98;2.37;;;;;;;18.99;52.25;101033.83;1680109;85;21513;-43
2022/05/20 11:08:59;;;;;;;5.65;1.90;;;;;;;19.16;50.37;101026.95;1714614;82;20924;-43
2022/05/20 11:11:55;;;;;;;9.05;2.30;;;;;;;19.14;50.53;101030.11;1679581;85;20908;-43
2022/05/20 11:15:12;;;;;;;14.73;2.50;;;;;;;19.12;51.59;101029.33;1714997;83;20894;-44
2022/05/20 11:18:08;;;;;;;9.23;2.07;;;;;;;19.30;51.13;101025.88;1714769;82;21885;-43
2022/05/20 11:21:12;;;;;;;8.00;1.82;;;;;;;19.63;51.02;101022.58;1680016;85;21225;-43
2022/05/20 11:24:16;;;;;;;12.25;2.20;;;;;;;19.80;49.76;101021.77;1647749;86;21035;-44
2022/05/20 11:27:24;;;;;;;22.27;3.10;;;;;;;19.93;50.05;101022.05;1714698;83;20976;-43
2022/05/20 11:30:11;;;;;;;6.22;1.80;;;;;;;20.18;49.90;101019.52;1680196;85;21506;-44
2022/05/20 11:32:55;;;;;;;6.83;1.90;;;;;;;20.68;48.46;101011.30;1693900;82;21601;-44
2022/05/20 11:35:27;;;;;;;3.12;1.50;;;;;;;20.92;46.67;101009.66;1678585;85;20983;-43
2022/05/20 11:38:19;;;;;;;4.75;1.75;;;;;;;20.91;46.02;101008.41;1714589;83;20890;-43
2022/05/20 11:41:09;;;;;;;9.03;1.75;;;;;;;20.74;46.80;101000.93;1714636;83;20929;-43
2022/05/20 11:43:56;;;;;;;3.40;2.15;;;;;;;21.06;47.75;101001.47;1679882;85;21461;-42
2022/05/20 11:47:00;;;;;;;5.55;1.90;;;;;;;21.10;46.93;100995.12;1686139;85;21296;-44
2022/05/20 11:49:58;;;;;;;5.80;1.57;;;;;;;21.01;46.59;100987.72;1722437;82;20873;-44
2022/05/20 11:52:40;;;;;;;6.85;1.90;;;;;;;21.06;47.04;100997.52;1687560;85;20920;-44
2022/05/20 11:55:21;;;;;;;19.62;2.62;;;;;;;21.14;46.58;100986.13;1722519;83;21355;-44
2022/05/20 11:57:53;;;;;;;4.40;1.42;;;;;;;21.17;47.19;100984.64;1721682;83;20936;-44
2022/05/20 12:00:21;;;;;;;3.98;1.77;;;;;;;21.15;47.21;100983.02;1687319;85;22632;-45
2022/05/20 12:02:53;;;;;;;5.70;2.00;;;;;;;21.14;45.95;100982.19;1687366;85;21438;-44
2022/05/20 12:05:24;;;;;;;3.45;1.65;;;;;;;21.06;46.46;100973.83;1722476;83;21087;-44
2022/05/20 12:07:50;;;;;;;4.37;2.17;;;;;;;21.19;46.48;100972.70;1722391;83;21003;-45
2022/05/20 12:10:32;;;;;;;8.68;1.60;;;;;;;21.45;45.81;100973.03;1687680;85;20995;-44
2022/05/20 12:13:26;;;;;;;3.83;1.82;;;;;;;21.66;45.41;100955.20;1687686;85;21261;-44
2022/05/20 12:16:12;;;;;;;6.95;1.82;;;;;;;21.56;44.83;100947.41;1704030;83;21018;-44
2022/05/20 12:24:43;;;;;;;4.70;1.40;;;;;;;21.68;44.51;100943.62;1685940;85;20963;-44
2022/05/20 12:27:27;;;;;;;3.15;1.60;;;;;;;21.67;45.47;100948.52;1722420;82;21874;-44
2022/05/20 12:30:21;;;;;;;4.90;1.55;;;;;;;22.04;42.58;100942.89;1687079;85;20982;-44
2022/05/20 12:32:49;;;;;;;10.38;1.35;;;;;;;22.18;42.41;100945.19;1687474;85;20899;-44
2022/05/20 12:35:26;;;;;;;2.92;1.22;;;;;;;22.08;41.05;100939.13;1687575;85;21431;-44
2022/05/20 12:37:57;;;;;;;3.87;1.77;;;;;;;21.86;41.00;100937.41;1687447;85;20880;-44